createdAt,value
2022-08-17T00:01:27.471Z,23.16
2022-08-17T00:03:54.439Z,23.26
2022-08-17T00:06:27.425Z,23.51
2022-08-17T00:09:00.240Z,23.33
2022-08-17T00:11:31.824Z,23.12
2022-08-17T00:14:02.084Z,23.22
2022-08-17T00:16:55.480Z,23.42
2022-08-17T00:19:22.991Z,23.52
2022-08-17T00:22:00.024Z,23.52
2022-08-17T00:24:36.624Z,23.48
2022-08-17T00:27:03.365Z,23.74
2022-08-17T00:29:29.834Z,23.97
2022-08-17T00:31:56.351Z,23.99
2022-08-17T00:34:22.836Z,23.96
2022-08-17T00:36:49.368Z,23.73
2022-08-17T00:39:15.860Z,23.59
2022-08-17T00:41:42.856Z,23.74
2022-08-17T00:44:09.662Z,23.88
2022-08-17T00:46:41.098Z,23.76
2022-08-17T00:49:08.745Z,23.80
2022-08-17T00:51:40.804Z,23.58
2022-08-17T00:54:13.204Z,23.48
2022-08-17T00:56:44.916Z,23.21
2022-08-17T00:59:14.429Z,23.09
2022-08-17T01:01:41.361Z,23.16
2022-08-17T01:04:08.643Z,23.08
2022-08-17T01:06:35.759Z,22.99
2022-08-17T01:09:03.358Z,22.80
2022-08-17T01:11:31.347Z,22.75
2022-08-17T01:13:58.259Z,22.68
2022-08-17T01:16:30.373Z,22.59
2022-08-17T01:19:03.720Z,22.72
2022-08-17T01:21:41.990Z,22.83
2022-08-17T01:24:08.587Z,23.02
2022-08-17T01:26:35.922Z,22.96
2022-08-17T01:29:04.736Z,22.99
2022-08-17T01:31:37.905Z,23.02
2022-08-17T01:34:09.963Z,23.16
2022-08-17T01:36:39.345Z,23.11
2022-08-17T01:39:07.597Z,23.11
2022-08-17T01:41:34.825Z,23.03
2022-08-17T01:44:03.850Z,23.08
2022-08-17T01:46:33.656Z,23.04
2022-08-17T01:49:01.052Z,23.03
2022-08-17T01:51:29.504Z,23.00
2022-08-17T01:53:58.939Z,22.85
2022-08-17T01:56:26.185Z,22.60
2022-08-17T01:58:52.703Z,22.49
2022-08-17T02:01:22.221Z,22.34
2022-08-17T02:03:59.137Z,22.30
2022-08-17T02:06:45.257Z,22.29
2022-08-17T02:09:19.968Z,22.18
2022-08-17T02:11:54.615Z,22.30
2022-08-17T02:14:21.423Z,22.15
2022-08-17T02:16:48.135Z,22.30
2022-08-17T02:19:15.883Z,22.26
2022-08-17T02:21:44.694Z,22.39
2022-08-17T02:24:15.338Z,22.40
2022-08-17T02:26:42.004Z,22.27
2022-08-17T02:29:08.505Z,22.07
2022-08-17T02:31:35.841Z,22.03
2022-08-17T02:34:04.729Z,22.09
2022-08-17T02:36:35.373Z,22.07
2022-08-17T02:39:04.748Z,21.94
2022-08-17T02:41:31.300Z,21.87
2022-08-17T02:43:57.972Z,21.60
2022-08-17T02:46:24.475Z,20.38
2022-08-17T02:48:51.000Z,20.06
2022-08-17T02:51:17.542Z,19.65
2022-08-17T02:53:44.985Z,19.39
2022-08-17T02:56:11.526Z,19.26
2022-08-17T02:58:38.364Z,19.35
2022-08-17T03:01:06.944Z,19.36
2022-08-17T03:03:34.549Z,19.27
2022-08-17T03:06:01.673Z,19.08
2022-08-17T03:08:28.480Z,19.07
2022-08-17T03:10:55.073Z,19.26
2022-08-17T03:13:21.913Z,19.34
2022-08-17T03:15:48.924Z,19.29
2022-08-17T03:18:19.213Z,19.29
2022-08-17T03:20:54.138Z,19.22
2022-08-17T03:23:23.674Z,19.19
2022-08-17T03:25:52.855Z,19.20
2022-08-17T03:28:20.297Z,19.26
2022-08-17T03:30:46.820Z,19.20
2022-08-17T03:33:13.363Z,19.17
2022-08-17T03:35:40.088Z,19.07
2022-08-17T03:38:07.947Z,19.05
2022-08-17T03:40:57.314Z,19.05
2022-08-17T03:43:22.628Z,19.06
2022-08-17T03:45:49.348Z,19.13
2022-08-17T03:48:18.573Z,19.13
2022-08-17T03:50:45.073Z,18.98
2022-08-17T03:53:15.619Z,19.07
2022-08-17T03:55:42.184Z,19.02
2022-08-17T03:58:08.678Z,19.13
2022-08-17T04:00:36.160Z,19.17
2022-08-17T04:03:06.329Z,19.21
2022-08-17T04:05:35.541Z,19.19
2022-08-17T04:08:02.128Z,19.32
2022-08-17T04:10:33.261Z,19.45
2022-08-17T04:13:07.984Z,19.40
2022-08-17T04:15:34.468Z,19.43
2022-08-17T04:18:01.036Z,19.40
2022-08-17T04:20:28.184Z,19.58
2022-08-17T04:23:07.038Z,19.54
2022-08-17T04:25:36.691Z,19.53
2022-08-17T04:28:05.370Z,19.43
2022-08-17T04:30:41.089Z,19.35
2022-08-17T04:33:27.542Z,19.37
2022-08-17T04:35:57.172Z,19.35
2022-08-17T04:38:34.570Z,19.44
2022-08-17T04:41:01.510Z,19.46
2022-08-17T04:43:29.990Z,19.45
2022-08-17T04:46:01.982Z,19.55
2022-08-17T04:48:36.296Z,19.61
2022-08-17T04:51:09.067Z,19.62
2022-08-17T04:53:36.031Z,19.84
2022-08-17T04:56:02.667Z,19.83
2022-08-17T04:58:29.220Z,19.71
2022-08-17T05:00:55.726Z,19.74
2022-08-17T05:03:22.352Z,19.88
2022-08-17T05:05:48.909Z,19.93
2022-08-17T05:08:17.835Z,19.92
2022-08-17T05:10:45.257Z,20.00
2022-08-17T05:13:17.628Z,20.08
2022-08-17T05:15:47.798Z,20.20
2022-08-17T05:18:15.412Z,20.20
2022-08-17T05:20:42.112Z,20.32
2022-08-17T05:23:12.098Z,20.34
2022-08-17T05:25:40.011Z,20.37
2022-08-17T05:28:07.172Z,20.40
2022-08-17T05:30:34.729Z,20.58
2022-08-17T05:33:04.391Z,20.75
2022-08-17T05:35:33.607Z,20.75
2022-08-17T05:38:00.668Z,20.89
2022-08-17T05:40:28.224Z,20.94
2022-08-17T05:43:07.562Z,20.69
2022-08-17T05:45:55.555Z,20.64
2022-08-17T05:48:35.410Z,20.73
2022-08-17T05:51:34.062Z,21.20
2022-08-17T05:54:06.687Z,21.40
2022-08-17T05:57:10.489Z,21.62
2022-08-17T05:59:55.353Z,21.82
2022-08-17T06:02:36.282Z,21.93
2022-08-17T06:05:17.313Z,21.93
2022-08-17T06:07:54.147Z,21.86
2022-08-17T06:10:35.915Z,21.68
2022-08-17T06:13:21.423Z,21.88
2022-08-17T06:16:04.987Z,21.88
2022-08-17T06:19:01.272Z,21.93
2022-08-17T06:21:33.557Z,22.38
2022-08-17T06:24:08.625Z,22.59
2022-08-17T06:26:42.775Z,22.84
2022-08-17T06:29:28.703Z,22.92
2022-08-17T06:31:55.483Z,23.14
2022-08-17T06:34:22.012Z,23.24
2022-08-17T06:36:54.289Z,23.27
2022-08-17T06:39:36.961Z,23.61
2022-08-17T06:43:02.330Z,23.68
2022-08-17T06:45:35.828Z,23.91
2022-08-17T06:48:10.022Z,23.98
2022-08-17T06:50:45.951Z,23.99
2022-08-17T06:53:12.370Z,24.29
2022-08-17T06:56:03.061Z,24.58
2022-08-17T06:58:30.377Z,24.76
2022-08-17T07:00:59.147Z,24.82
2022-08-17T07:03:36.481Z,24.66
2022-08-17T07:06:13.605Z,24.66
2022-08-17T07:09:03.749Z,24.71
2022-08-17T07:11:33.634Z,24.52
2022-08-17T07:14:29.802Z,24.58
2022-08-17T07:16:58.065Z,24.72
2022-08-17T07:19:31.125Z,25.07
2022-08-17T07:22:06.261Z,25.78
2022-08-17T07:24:45.365Z,26.83
2022-08-17T07:27:20.752Z,27.91
2022-08-17T07:30:05.725Z,28.49
2022-08-17T07:32:40.646Z,28.77
2022-08-17T07:35:10.843Z,28.99
2022-08-17T07:37:49.386Z,28.78
2022-08-17T07:40:21.522Z,29.09
2022-08-17T07:43:07.641Z,29.38
2022-08-17T07:46:11.222Z,29.40
2022-08-17T07:48:39.365Z,28.98
2022-08-17T07:51:18.611Z,28.80
2022-08-17T07:53:45.421Z,28.34
2022-08-17T07:56:32.466Z,28.26
2022-08-17T07:59:23.336Z,28.48
2022-08-17T08:01:57.700Z,28.11
2022-08-17T08:05:02.573Z,27.54
2022-08-17T08:07:18.994Z,27.36
2022-08-17T08:09:59.848Z,26.91
2022-08-17T08:12:27.174Z,26.91
2022-08-17T08:15:14.483Z,26.67
2022-08-17T08:18:13.160Z,26.55
2022-08-17T08:20:53.100Z,26.75
2022-08-17T08:23:59.434Z,26.22
2022-08-17T08:26:45.412Z,25.98
2022-08-17T08:29:20.748Z,25.92
2022-08-17T08:32:08.060Z,26.09
2022-08-17T08:34:47.431Z,26.83
2022-08-17T08:37:50.669Z,27.57
2022-08-17T08:40:27.752Z,28.27
2022-08-17T08:43:28.509Z,28.74
2022-08-17T08:46:12.326Z,29.15
2022-08-17T08:49:18.353Z,29.44
2022-08-17T08:51:55.011Z,29.20
2022-08-17T08:54:42.746Z,29.59
2022-08-17T08:57:34.093Z,29.66
2022-08-17T09:00:18.480Z,29.81
2022-08-17T09:03:12.743Z,30.00
2022-08-17T09:05:57.797Z,29.97
2022-08-17T09:08:29.597Z,30.23
2022-08-17T09:11:04.282Z,30.13
2022-08-17T09:13:54.560Z,30.15
2022-08-17T09:16:22.058Z,30.09
2022-08-17T09:19:03.606Z,30.05
2022-08-17T09:21:35.027Z,29.81
2022-08-17T09:24:21.765Z,29.72
2022-08-17T09:27:09.083Z,29.49
2022-08-17T09:29:40.657Z,29.17
2022-08-17T09:32:27.913Z,28.92
2022-08-17T09:34:58.337Z,28.84
2022-08-17T09:37:40.346Z,28.83
2022-08-17T09:40:17.761Z,28.93
2022-08-17T09:42:48.243Z,29.11
2022-08-17T09:45:30.406Z,28.86
2022-08-17T09:48:11.436Z,28.62
2022-08-17T09:51:04.034Z,28.51
2022-08-17T09:53:31.995Z,28.31
2022-08-17T09:55:58.704Z,28.36
2022-08-17T09:59:06.721Z,28.56
2022-08-17T10:01:38.119Z,28.49
2022-08-17T10:04:24.894Z,28.48
2022-08-17T10:07:23.029Z,28.56
2022-08-17T10:10:17.538Z,28.65
2022-08-17T10:13:09.618Z,28.75
2022-08-17T10:15:57.561Z,28.45
2022-08-17T10:18:33.281Z,28.03
2022-08-17T10:21:07.709Z,27.67
2022-08-17T10:23:34.376Z,28.01
2022-08-17T10:26:08.871Z,28.16
2022-08-17T10:28:40.560Z,28.27
2022-08-17T10:34:15.117Z,28.09
2022-08-17T10:36:47.819Z,28.16
2022-08-17T10:39:52.771Z,28.08
2022-08-17T10:42:36.115Z,28.23
2022-08-17T10:45:17.287Z,28.40
2022-08-17T10:48:05.651Z,28.53
2022-08-17T10:50:44.423Z,28.46
2022-08-17T10:53:33.389Z,28.59
2022-08-17T10:56:12.049Z,28.45
2022-08-17T10:58:53.386Z,28.58
2022-08-17T11:02:07.105Z,28.84
2022-08-17T11:04:45.766Z,29.35
2022-08-17T11:07:23.174Z,29.50
2022-08-17T11:09:55.967Z,29.38
2022-08-17T11:12:57.867Z,29.30
2022-08-17T11:15:44.353Z,29.44
2022-08-17T11:18:52.387Z,29.70
2022-08-17T11:21:21.718Z,29.41
2022-08-17T11:24:05.050Z,29.80
2022-08-17T11:26:36.699Z,29.96
2022-08-17T11:29:07.096Z,30.01
2022-08-17T11:31:43.488Z,30.08
2022-08-17T11:34:23.210Z,30.08
2022-08-17T11:37:08.497Z,30.07
2022-08-17T11:39:44.319Z,30.17
2022-08-17T11:42:31.484Z,30.33
2022-08-17T11:45:03.844Z,30.34
2022-08-17T11:47:30.279Z,30.60
2022-08-17T11:50:22.504Z,30.33
2022-08-17T11:52:52.611Z,30.33
2022-08-17T11:55:39.383Z,30.37
2022-08-17T11:58:28.893Z,29.87
2022-08-17T12:01:03.917Z,30.06
2022-08-17T12:03:32.728Z,30.31
2022-08-17T12:06:11.707Z,30.46
2022-08-17T12:08:41.155Z,30.58
2022-08-17T12:11:12.010Z,30.57
2022-08-17T12:13:52.308Z,30.74
2022-08-17T12:16:21.178Z,30.26
2022-08-17T12:19:02.563Z,30.20
2022-08-17T12:21:41.403Z,30.13
2022-08-17T12:24:07.968Z,30.33
2022-08-17T12:26:36.279Z,29.95
2022-08-17T12:29:05.734Z,30.03
2022-08-17T12:31:41.643Z,29.91
2022-08-17T12:34:16.361Z,30.41
2022-08-17T12:36:43.209Z,30.29
2022-08-17T12:39:13.290Z,30.44
2022-08-17T12:41:46.453Z,30.08
2022-08-17T12:44:16.683Z,30.19
2022-08-17T12:46:53.610Z,30.28
2022-08-17T12:49:35.867Z,30.17
2022-08-17T12:52:24.485Z,30.30
2022-08-17T12:54:53.687Z,30.35
2022-08-17T12:57:25.051Z,30.55
2022-08-17T13:00:02.097Z,30.86
2022-08-17T13:02:39.755Z,31.16
2022-08-17T13:05:08.996Z,31.49
2022-08-17T13:07:41.677Z,31.24
2022-08-17T13:10:08.682Z,31.35
2022-08-17T13:12:35.644Z,31.30
2022-08-17T13:15:02.419Z,31.25
2022-08-17T13:17:36.058Z,31.02
2022-08-17T13:20:04.690Z,31.14
2022-08-17T13:22:31.260Z,30.75
2022-08-17T13:25:01.747Z,31.22
2022-08-17T13:27:29.426Z,31.36
2022-08-17T13:30:02.381Z,31.51
2022-08-17T13:32:43.903Z,31.69
2022-08-17T13:35:40.571Z,31.72
2022-08-17T13:38:11.699Z,31.64
2022-08-17T13:40:50.743Z,32.01
2022-08-17T13:43:46.221Z,32.05
2022-08-17T13:46:19.206Z,31.75
2022-08-17T13:48:46.754Z,31.92
2022-08-17T13:51:17.440Z,31.71
2022-08-17T13:53:43.860Z,31.87
2022-08-17T13:56:33.185Z,32.03
2022-08-17T13:59:09.745Z,32.20
2022-08-17T14:01:53.394Z,32.28
2022-08-17T14:04:26.616Z,32.25
2022-08-17T14:07:11.164Z,32.00
2022-08-17T14:09:40.871Z,31.85
2022-08-17T14:12:12.220Z,32.05
2022-08-17T14:14:39.075Z,31.97
2022-08-17T14:17:05.765Z,32.00
2022-08-17T14:19:35.288Z,31.71
2022-08-17T14:22:02.086Z,31.80
2022-08-17T14:24:31.008Z,31.26
2022-08-17T14:26:58.397Z,30.81
2022-08-17T14:29:26.803Z,30.79
2022-08-17T14:31:54.572Z,30.48
2022-08-17T14:34:22.645Z,30.55
2022-08-17T14:36:49.240Z,30.39
2022-08-17T14:39:18.038Z,29.60
2022-08-17T14:41:45.101Z,29.68
2022-08-17T14:44:12.083Z,29.51
2022-08-17T14:46:42.997Z,29.66
2022-08-17T14:49:12.568Z,29.50
2022-08-17T14:51:43.853Z,29.34
2022-08-17T14:54:33.119Z,29.30
2022-08-17T14:57:22.819Z,29.22
2022-08-17T14:59:54.190Z,29.14
2022-08-17T15:02:29.276Z,29.29
2022-08-17T15:05:01.883Z,29.21
2022-08-17T15:07:30.814Z,28.87
2022-08-17T15:09:58.694Z,28.82
2022-08-17T15:12:32.000Z,28.68
2022-08-17T15:14:59.701Z,28.56
2022-08-17T15:17:43.846Z,28.55
2022-08-17T15:20:26.737Z,28.68
2022-08-17T15:22:54.391Z,28.90
2022-08-17T15:25:22.012Z,28.82
2022-08-17T15:27:49.028Z,28.43
2022-08-17T15:30:16.271Z,28.49
2022-08-17T15:32:51.217Z,28.53
2022-08-17T15:35:27.330Z,28.11
2022-08-17T15:37:58.727Z,27.83
2022-08-17T15:40:34.943Z,27.76
2022-08-17T15:43:14.661Z,27.57
2022-08-17T15:45:41.297Z,27.50
2022-08-17T15:48:08.156Z,27.16
2022-08-17T15:50:35.322Z,26.80
2022-08-17T15:53:02.220Z,26.58
2022-08-17T15:55:29.968Z,26.51
2022-08-17T15:57:56.571Z,26.50
2022-08-17T16:00:23.332Z,26.43
2022-08-17T16:03:20.308Z,26.24
2022-08-17T16:05:36.729Z,25.90
2022-08-17T16:08:03.884Z,25.77
2022-08-17T16:10:35.386Z,25.63
2022-08-17T16:13:03.374Z,25.53
2022-08-17T16:15:29.996Z,25.35
2022-08-17T16:17:56.833Z,24.65
2022-08-17T16:20:23.407Z,23.73
2022-08-17T16:22:51.310Z,22.78
2022-08-17T16:25:22.208Z,21.57
2022-08-17T16:27:50.540Z,20.82
2022-08-17T16:30:18.022Z,20.67
2022-08-17T16:32:45.588Z,20.86
2022-08-17T16:35:13.283Z,21.06
2022-08-17T16:37:39.903Z,21.18
2022-08-17T16:40:09.729Z,21.05
2022-08-17T16:42:37.490Z,20.86
2022-08-17T16:45:27.556Z,20.52
2022-08-17T16:47:54.859Z,19.66
2022-08-17T16:50:23.719Z,18.70
2022-08-17T16:52:50.586Z,18.35
2022-08-17T16:55:20.512Z,17.73
2022-08-17T16:57:50.323Z,17.63
2022-08-17T17:00:19.458Z,17.41
2022-08-17T17:02:47.880Z,17.43
2022-08-17T17:05:57.672Z,17.44
2022-08-17T17:08:44.389Z,17.56
2022-08-17T17:11:25.387Z,17.83
2022-08-17T17:13:55.573Z,18.02
2022-08-17T17:16:45.397Z,18.23
2022-08-17T17:19:38.309Z,18.38
2022-08-17T17:22:40.861Z,18.52
2022-08-17T17:25:10.158Z,18.94
2022-08-17T17:28:00.740Z,19.07
2022-08-17T17:31:02.090Z,19.32
2022-08-17T17:33:44.032Z,19.41
2022-08-17T17:36:31.580Z,19.28
2022-08-17T17:39:04.013Z,19.30
2022-08-17T17:41:37.299Z,19.21
2022-08-17T17:44:11.847Z,19.36
2022-08-17T17:46:42.349Z,19.32
2022-08-17T17:49:09.126Z,19.37
2022-08-17T17:52:14.567Z,19.64
2022-08-17T17:55:03.475Z,19.83
2022-08-17T17:57:38.361Z,19.72
2022-08-17T18:00:15.649Z,19.67
2022-08-17T18:02:52.083Z,19.82
2022-08-17T18:05:56.768Z,20.05
2022-08-17T18:08:35.662Z,19.75
2022-08-17T18:11:24.458Z,19.93
2022-08-17T18:14:44.966Z,19.94
2022-08-17T18:17:11.583Z,19.84
2022-08-17T18:19:38.109Z,19.73
2022-08-17T18:22:14.242Z,19.73
2022-08-17T18:24:43.776Z,19.61
2022-08-17T18:27:23.229Z,19.73
2022-08-17T18:29:52.180Z,19.65
2022-08-17T18:32:30.431Z,19.62
2022-08-17T18:35:00.802Z,19.43
2022-08-17T18:37:39.369Z,19.55
2022-08-17T18:40:25.623Z,19.73
2022-08-17T18:42:59.760Z,19.75
2022-08-17T18:45:43.508Z,19.62
2022-08-17T18:48:20.756Z,19.70
2022-08-17T18:50:47.556Z,19.60
2022-08-17T18:53:34.174Z,19.42
2022-08-17T18:56:30.760Z,19.16
2022-08-17T18:59:32.093Z,19.03
2022-08-17T19:02:19.436Z,19.05
2022-08-17T19:05:08.983Z,18.93
2022-08-17T19:07:39.959Z,19.01
2022-08-17T19:10:23.362Z,18.99
2022-08-17T19:13:00.682Z,18.93
2022-08-17T19:15:35.578Z,18.85
2022-08-17T19:18:14.719Z,18.64
2022-08-17T19:20:48.245Z,18.72
2022-08-17T19:23:21.025Z,18.99
2022-08-17T19:25:52.785Z,18.82
2022-08-17T19:28:23.289Z,18.82
2022-08-17T19:30:54.747Z,18.84
2022-08-17T19:33:21.392Z,18.85
2022-08-17T19:36:07.454Z,18.88
2022-08-17T19:38:33.896Z,19.09
2022-08-17T19:41:22.079Z,19.05
2022-08-17T19:44:14.865Z,19.21
2022-08-17T19:46:56.319Z,19.20
2022-08-17T19:49:52.805Z,19.28
2022-08-17T19:52:29.670Z,19.30
2022-08-17T19:55:02.758Z,19.46
2022-08-17T19:57:52.601Z,19.35
2022-08-17T20:00:19.412Z,19.23
2022-08-17T20:02:45.914Z,19.32
2022-08-17T20:05:16.338Z,19.43
2022-08-17T20:07:51.071Z,19.46
2022-08-17T20:10:34.877Z,19.10
2022-08-17T20:13:09.684Z,18.80
2022-08-17T20:15:40.482Z,18.58
2022-08-17T20:18:32.625Z,18.40
2022-08-17T20:21:26.703Z,18.45
2022-08-17T20:24:13.883Z,18.51
2022-08-17T20:27:09.676Z,18.50
2022-08-17T20:29:54.863Z,18.59
2022-08-17T20:32:27.144Z,18.76
2022-08-17T20:35:20.067Z,18.88
2022-08-17T20:38:02.516Z,18.87
2022-08-17T20:40:36.958Z,18.83
2022-08-17T20:43:43.229Z,18.79
2022-08-17T20:46:31.903Z,18.55
2022-08-17T20:49:25.117Z,18.43
2022-08-17T20:52:12.304Z,18.31
2022-08-17T20:54:52.460Z,18.03
2022-08-17T20:57:31.371Z,17.66
2022-08-17T21:00:00.929Z,17.32
2022-08-17T21:02:28.475Z,17.29
2022-08-17T21:05:07.288Z,17.33
2022-08-17T21:07:42.920Z,17.40
2022-08-17T21:10:17.214Z,17.64
2022-08-17T21:13:08.566Z,17.73
2022-08-17T21:16:12.132Z,17.97
2022-08-17T21:18:46.574Z,18.11
2022-08-17T21:21:37.969Z,18.31
2022-08-17T21:24:11.700Z,18.28
2022-08-17T21:26:50.357Z,18.42
2022-08-17T21:29:31.270Z,18.17
2022-08-17T21:31:59.509Z,17.79
2022-08-17T21:34:38.355Z,17.58
2022-08-17T21:37:44.077Z,17.46
2022-08-17T21:40:10.967Z,17.37
2022-08-17T21:42:44.729Z,17.38
2022-08-17T21:45:33.457Z,17.36
2022-08-17T21:48:09.752Z,17.51
2022-08-17T21:50:37.568Z,17.45
2022-08-17T21:53:05.458Z,17.36
2022-08-17T21:55:34.601Z,17.32
2022-08-17T21:58:13.884Z,17.01
2022-08-17T22:00:42.100Z,16.80
2022-08-17T22:03:22.929Z,16.94
2022-08-17T22:05:51.954Z,17.08
2022-08-17T22:08:21.603Z,17.40
2022-08-17T22:10:48.316Z,17.62
2022-08-17T22:13:24.729Z,17.71
2022-08-17T22:16:15.213Z,18.17
2022-08-17T22:18:54.189Z,18.08
2022-08-17T22:21:22.554Z,18.26
2022-08-17T22:24:07.213Z,18.29
2022-08-17T22:27:04.427Z,18.11
2022-08-17T22:29:49.354Z,17.85
2022-08-17T22:32:41.967Z,17.70
2022-08-17T22:35:39.355Z,17.64
2022-08-17T22:38:18.219Z,17.31
2022-08-17T22:40:50.400Z,17.10
2022-08-17T22:43:25.847Z,17.07
2022-08-17T22:45:58.256Z,16.99
2022-08-17T22:48:27.432Z,16.91
2022-08-17T22:51:12.609Z,16.71
2022-08-17T22:53:48.508Z,16.68
2022-08-17T22:56:22.628Z,16.64
2022-08-17T22:58:58.785Z,16.71
2022-08-17T23:01:33.449Z,16.67
2022-08-17T23:04:01.359Z,16.61
2022-08-17T23:06:28.827Z,16.50
2022-08-17T23:08:55.803Z,16.58
2022-08-17T23:11:36.875Z,16.68
2022-08-17T23:14:14.028Z,16.76
2022-08-17T23:16:41.574Z,16.78
2022-08-17T23:19:12.530Z,16.78
2022-08-17T23:21:39.413Z,16.95
2022-08-17T23:24:06.538Z,17.02
2022-08-17T23:26:34.371Z,17.09
2022-08-17T23:29:00.902Z,17.28
2022-08-17T23:31:27.409Z,17.23
2022-08-17T23:33:53.954Z,17.23
2022-08-17T23:36:20.458Z,17.34
2022-08-17T23:38:46.965Z,17.59
2022-08-17T23:41:15.339Z,17.65
2022-08-17T23:43:46.788Z,17.54
2022-08-17T23:46:13.462Z,17.48
2022-08-17T23:48:40.140Z,17.61
2022-08-17T23:51:13.055Z,17.71
2022-08-17T23:53:42.987Z,17.73
2022-08-17T23:56:10.943Z,17.81
2022-08-17T23:58:39.650Z,18.01
